Time;durP1;ratioP1;P1;durP2;ratioP2;P2;SDS_P1;SDS_P2;PMS_P1;PMS_P2;Temp;Humidity;BMP_temperature;BMP_pressure;BME280_temperature;BME280_humidity;BME280_pressure;Samples;Min_cycle;Max_cycle;Signal;HPM_P1;HPM_P2
2022/03/06 00:01:58;;;;;;;;;;;;;;;5.71;66.98;100454.91;5017620;28;19963;-66
2022/03/06 00:04:42;;;;;;;;;;;;;;;5.69;67.06;100461.69;5017150;28;20430;-66
2022/03/06 00:07:25;;;;;;;;;;;;;;;5.69;66.85;100464.25;5017384;28;20400;-66
2022/03/06 00:10:09;;;;;;;;;;;;;;;5.69;67.42;100465.13;5017327;28;20055;-66
2022/03/06 00:12:53;;;;;;;;;;;;;;;5.70;67.55;100469.44;5016226;28;19959;-65
2022/03/06 00:15:37;;;;;;;;;;;;;;;5.69;67.28;100466.81;5016699;28;20009;-67
2022/03/06 00:18:21;;;;;;;;;;;;;;;5.69;67.44;100471.97;5017080;28;20008;-66
2022/03/06 00:21:05;;;;;;;;;;;;;;;5.69;67.02;100474.53;5016606;28;20033;-66
2022/03/06 00:23:49;;;;;;;;;;;;;;;5.67;67.14;100471.91;5017272;28;19937;-66
2022/03/06 00:26:33;;;;;;;;;;;;;;;5.68;67.32;100472.78;5016797;28;19923;-66
2022/03/06 00:29:17;;;;;;;;;;;;;;;5.67;66.96;100469.34;5016732;28;19924;-66
2022/03/06 00:32:01;;;;;;;;;;;;;;;5.66;67.40;100466.69;5016329;28;20331;-66
2022/03/06 00:34:46;;;;;;;;;;;;;;;5.64;67.49;100475.22;5017022;28;19928;-66
2022/03/06 00:37:30;;;;;;;;;;;;;;;5.64;67.25;100488.06;5015422;28;19924;-65
2022/03/06 00:40:14;;;;;;;;;;;;;;;5.64;67.05;100474.34;5016729;28;19964;-66
2022/03/06 00:42:58;;;;;;;;;;;;;;;5.62;66.90;100483.69;5015438;28;19980;-66
2022/03/06 00:45:42;;;;;;;;;;;;;;;5.63;66.99;100473.47;5017031;28;19939;-66
2022/03/06 00:48:26;;;;;;;;;;;;;;;5.61;67.16;100472.50;5016613;28;19940;-65
2022/03/06 00:51:11;;;;;;;;;;;;;;;5.61;67.10;100474.22;5016670;28;19924;-66
2022/03/06 00:53:55;;;;;;;;;;;;;;;5.60;67.31;100483.63;5015626;28;19923;-66
2022/03/06 00:56:39;;;;;;;;;;;;;;;5.59;66.81;100480.97;5016015;28;20007;-66
2022/03/06 00:59:23;;;;;;;;;;;;;;;5.57;66.69;100475.78;5015914;28;19924;-66
2022/03/06 01:02:07;;;;;;;;;;;;;;;5.57;67.42;100474.88;5016152;28;19959;-66
2022/03/06 01:04:51;;;;;;;;;;;;;;;5.56;67.37;100474.03;5016227;28;20396;-66
2022/03/06 01:07:40;;;;;;;;;;;;;;;5.58;66.91;100474.06;5015991;28;19928;-66
2022/03/06 01:10:24;;;;;;;;;;;;;;;5.57;66.94;100478.34;5016375;28;19924;-66
2022/03/06 01:13:09;;;;;;;;;;;;;;;5.56;66.93;100471.44;5015922;28;19924;-66
2022/03/06 01:15:52;;;;;;;;;;;;;;;5.55;66.71;100481.66;5014878;28;19963;-67
2022/03/06 01:18:37;;;;;;;;;;;;;;;5.54;66.87;100477.31;5016172;28;19972;-66
2022/03/06 01:21:21;;;;;;;;;;;;;;;5.56;66.85;100480.84;5015871;28;19970;-66
2022/03/06 01:24:05;;;;;;;;;;;;;;;5.55;66.84;100476.50;5014871;28;19988;-66
2022/03/06 01:26:48;;;;;;;;;;;;;;;5.56;67.20;100483.41;5014672;28;19924;-66
2022/03/06 01:29:32;;;;;;;;;;;;;;;5.56;67.32;100483.41;5016038;28;19925;-66
2022/03/06 01:32:16;;;;;;;;;;;;;;;5.56;67.22;100484.31;5014280;28;19924;-66
2022/03/06 01:35:00;;;;;;;;;;;;;;;5.55;66.74;100485.13;5015499;28;19972;-66
2022/03/06 01:37:44;;;;;;;;;;;;;;;5.53;66.81;100481.59;5015476;28;20043;-66
2022/03/06 01:40:29;;;;;;;;;;;;;;;5.52;67.30;100481.53;5016043;28;19925;-66
2022/03/06 01:43:13;;;;;;;;;;;;;;;5.49;66.91;100483.16;5015845;28;19940;-65
2022/03/06 01:45:57;;;;;;;;;;;;;;;5.50;66.75;100491.75;5014860;28;19925;-66
2022/03/06 01:48:41;;;;;;;;;;;;;;;5.48;67.09;100489.13;5015513;28;19924;-66
2022/03/06 01:51:25;;;;;;;;;;;;;;;5.48;67.15;100478.84;5015484;28;20016;-66
2022/03/06 01:54:08;;;;;;;;;;;;;;;5.46;66.63;100490.75;5014239;28;19964;-66
2022/03/06 01:56:53;;;;;;;;;;;;;;;5.47;67.19;100492.50;5015417;28;19924;-66
2022/03/06 01:59:36;;;;;;;;;;;;;;;5.47;66.66;100489.94;5014752;28;19924;-65
2022/03/06 02:02:20;;;;;;;;;;;;;;;5.46;66.81;100484.69;5013712;28;19940;-65
2022/03/06 02:05:04;;;;;;;;;;;;;;;5.46;66.76;100485.59;5014718;28;19925;-65
2022/03/06 02:07:48;;;;;;;;;;;;;;;5.45;67.35;100488.13;5014836;28;19924;-65
2022/03/06 02:10:33;;;;;;;;;;;;;;;5.44;66.71;100479.50;5014847;28;20301;-66
2022/03/06 02:13:17;;;;;;;;;;;;;;;5.44;66.88;100476.94;5014663;28;19925;-66
2022/03/06 02:16:01;;;;;;;;;;;;;;;5.45;67.39;100482.97;5014302;28;19944;-65
2022/03/06 02:18:45;;;;;;;;;;;;;;;5.43;67.15;100484.59;5015192;28;20328;-66
2022/03/06 02:21:29;;;;;;;;;;;;;;;5.43;67.25;100480.31;5014760;28;19925;-66
2022/03/06 02:24:13;;;;;;;;;;;;;;;5.43;66.86;100480.31;5014617;28;19925;-66
2022/03/06 02:26:59;;;;;;;;;;;;;;;5.43;67.23;100476.88;5014599;28;20359;-66
2022/03/06 02:29:42;;;;;;;;;;;;;;;5.43;67.61;100479.44;5014753;28;19963;-66
2022/03/06 02:32:26;;;;;;;;;;;;;;;5.42;67.08;100482.81;5014804;28;19925;-66
2022/03/06 02:35:10;;;;;;;;;;;;;;;5.43;66.71;100487.16;5014475;28;19967;-65
2022/03/06 02:37:55;;;;;;;;;;;;;;;5.43;67.54;100482.03;5014869;28;19923;-65
2022/03/06 02:40:41;;;;;;;;;;;;;;;5.42;67.16;100482.81;5014532;28;19940;-66
2022/03/06 02:43:25;;;;;;;;;;;;;;;5.43;67.10;100489.72;5013539;28;20315;-65
2022/03/06 02:46:09;;;;;;;;;;;;;;;5.42;67.29;100482.81;5014508;28;19924;-65
2022/03/06 02:48:52;;;;;;;;;;;;;;;5.41;67.50;100484.50;5014579;28;19924;-66
2022/03/06 02:51:36;;;;;;;;;;;;;;;5.41;67.20;100481.94;5014037;28;20288;-66
2022/03/06 02:54:20;;;;;;;;;;;;;;;5.41;67.38;100492.22;5014255;28;19964;-65
2022/03/06 02:57:05;;;;;;;;;;;;;;;5.40;67.04;100487.88;5014360;28;19951;-66
2022/03/06 02:59:51;;;;;;;;;;;;;;;5.40;66.89;100490.47;5014103;28;19924;-66
2022/03/06 03:02:35;;;;;;;;;;;;;;;5.40;67.62;100492.16;5013874;28;19936;-67
2022/03/06 03:05:19;;;;;;;;;;;;;;;5.39;67.08;100486.13;5014047;28;19971;-66
2022/03/06 03:08:03;;;;;;;;;;;;;;;5.38;67.07;100486.94;5014191;28;19988;-66
2022/03/06 03:10:47;;;;;;;;;;;;;;;5.38;67.20;100491.22;5013876;28;19925;-66
2022/03/06 03:13:31;;;;;;;;;;;;;;;5.37;67.22;100492.91;5013821;28;19924;-66
2022/03/06 03:16:15;;;;;;;;;;;;;;;5.37;66.89;100494.59;5014368;28;19924;-66
2022/03/06 03:18:58;;;;;;;;;;;;;;;5.36;67.24;100498.88;5014380;28;19925;-66
2022/03/06 03:21:42;;;;;;;;;;;;;;;5.36;67.27;100497.97;5013982;28;20021;-65
2022/03/06 03:24:27;;;;;;;;;;;;;;;5.36;67.49;100492.81;5013844;28;19924;-65
2022/03/06 03:27:10;;;;;;;;;;;;;;;5.35;67.54;100494.53;5012663;28;19940;-65
2022/03/06 03:29:54;;;;;;;;;;;;;;;5.34;67.17;100506.50;5017622;28;19925;-66
2022/03/06 03:32:38;;;;;;;;;;;;;;;5.34;67.60;100510.78;5017724;28;19924;-66
2022/03/06 03:35:22;;;;;;;;;;;;;;;5.33;67.59;100509.88;5017765;28;19971;-66
2022/03/06 03:38:06;;;;;;;;;;;;;;;5.33;67.28;100506.44;5017659;28;19974;-66
2022/03/06 03:40:50;;;;;;;;;;;;;;;5.32;67.35;100513.25;5017230;28;20046;-65
2022/03/06 03:43:34;;;;;;;;;;;;;;;5.31;67.30;100514.06;5016747;28;19924;-65
2022/03/06 03:46:18;;;;;;;;;;;;;;;5.32;67.30;100517.53;5017222;28;20012;-67
2022/03/06 03:49:02;;;;;;;;;;;;;;;5.31;67.76;100523.47;5017912;28;19924;-65
2022/03/06 03:51:46;;;;;;;;;;;;;;;5.30;67.20;100526.84;5017671;28;19979;-66
2022/03/06 03:54:30;;;;;;;;;;;;;;;5.29;67.75;100523.41;5017239;28;19940;-65
2022/03/06 03:57:14;;;;;;;;;;;;;;;5.29;67.76;100522.53;5017625;28;20406;-66
2022/03/06 03:59:57;;;;;;;;;;;;;;;5.29;67.90;100526.00;5017450;28;19971;-66
2022/03/06 04:02:41;;;;;;;;;;;;;;;5.27;67.30;100530.19;5017002;28;19924;-65
2022/03/06 04:05:25;;;;;;;;;;;;;;;5.26;67.09;100527.53;5017167;28;19945;-66
2022/03/06 04:08:09;;;;;;;;;;;;;;;5.25;67.14;100541.19;5016460;28;19923;-66
2022/03/06 04:10:56;;;;;;;;;;;;;;;5.24;67.15;100537.75;5017245;28;19924;-66
2022/03/06 04:13:40;;;;;;;;;;;;;;;5.24;67.48;100540.31;5016718;28;19952;-66
2022/03/06 04:16:24;;;;;;;;;;;;;;;5.23;67.77;100538.56;5016908;28;20431;-65
2022/03/06 04:19:09;;;;;;;;;;;;;;;5.23;67.71;100542.78;5017528;28;19987;-65
2022/03/06 04:21:53;;;;;;;;;;;;;;;5.21;67.83;100540.16;5017416;28;19924;-66
2022/03/06 04:24:37;;;;;;;;;;;;;;;5.21;67.51;100545.31;5016678;28;20323;-66
2022/03/06 04:27:21;;;;;;;;;;;;;;;5.21;67.19;100547.88;5015955;28;20292;-66
2022/03/06 04:30:06;;;;;;;;;;;;;;;5.20;67.32;100543.53;5017354;28;19968;-66
2022/03/06 04:32:50;;;;;;;;;;;;;;;5.18;67.86;100546.06;5016505;28;19971;-66
2022/03/06 04:35:34;;;;;;;;;;;;;;;5.18;67.71;100550.28;5016954;28;19924;-66
2022/03/06 04:38:17;;;;;;;;;;;;;;;5.16;67.13;100560.53;5016394;28;19924;-66
2022/03/06 04:41:01;;;;;;;;;;;;;;;5.17;67.98;100562.28;5016119;28;19924;-65
2022/03/06 04:43:45;;;;;;;;;;;;;;;5.17;68.24;100558.81;5016013;28;20415;-65
2022/03/06 04:46:31;;;;;;;;;;;;;;;5.16;67.82;100567.34;5016435;28;20431;-66
2022/03/06 04:49:15;;;;;;;;;;;;;;;5.15;67.71;100566.47;5016914;28;19925;-66
2022/03/06 04:51:59;;;;;;;;;;;;;;;5.15;67.37;100570.72;5016333;28;19924;-66
2022/03/06 04:54:43;;;;;;;;;;;;;;;5.15;67.48;100578.41;5016368;28;19970;-66
2022/03/06 04:57:27;;;;;;;;;;;;;;;5.15;67.80;100581.00;5016294;28;19968;-66
2022/03/06 05:00:11;;;;;;;;;;;;;;;5.14;67.33;100582.69;5015627;28;19968;-65
2022/03/06 05:02:55;;;;;;;;;;;;;;;5.13;68.09;100578.34;5015141;28;20087;-65
2022/03/06 05:05:39;;;;;;;;;;;;;;;5.13;67.49;100578.34;5015850;28;19925;-66
2022/03/06 05:08:26;;;;;;;;;;;;;;;5.13;68.00;100582.63;5014979;28;19924;-66
2022/03/06 05:11:10;;;;;;;;;;;;;;;5.12;68.38;100583.44;5016159;28;19925;-67
2022/03/06 05:13:55;;;;;;;;;;;;;;;5.11;67.96;100587.69;5015170;28;20006;-66
2022/03/06 05:16:38;;;;;;;;;;;;;;;5.11;67.91;100591.97;5016096;28;19925;-67
2022/03/06 05:19:22;;;;;;;;;;;;;;;5.10;67.37;100587.63;5015278;28;19952;-66
2022/03/06 05:22:06;;;;;;;;;;;;;;;5.10;67.50;100579.91;5016354;28;20280;-65
2022/03/06 05:24:50;;;;;;;;;;;;;;;5.09;68.10;100579.03;5014471;28;20319;-66
2022/03/06 05:27:34;;;;;;;;;;;;;;;5.09;67.97;100583.28;5015937;28;19971;-65
2022/03/06 05:30:18;;;;;;;;;;;;;;;5.08;67.60;100586.66;5015326;28;20339;-66
2022/03/06 05:33:02;;;;;;;;;;;;;;;5.07;67.69;100588.34;5015204;28;19963;-65
2022/03/06 05:35:46;;;;;;;;;;;;;;;5.06;67.64;100589.16;5015601;28;19924;-66
2022/03/06 05:38:31;;;;;;;;;;;;;;;5.06;68.46;100589.16;5014641;28;19932;-65
2022/03/06 05:41:15;;;;;;;;;;;;;;;5.06;68.31;100585.72;5015648;28;19933;-66
2022/03/06 05:43:59;;;;;;;;;;;;;;;5.06;68.18;100585.72;5015519;28;20004;-66
2022/03/06 05:46:43;;;;;;;;;;;;;;;5.06;67.98;100593.41;5015735;28;19924;-65
2022/03/06 05:49:27;;;;;;;;;;;;;;;5.06;68.43;100596.00;5014397;28;20077;-66
2022/03/06 05:52:11;;;;;;;;;;;;;;;5.05;68.08;100589.97;5014392;28;19972;-65
2022/03/06 05:54:55;;;;;;;;;;;;;;;5.05;67.67;100599.38;5015552;28;20391;-65
2022/03/06 05:57:39;;;;;;;;;;;;;;;5.03;68.16;100599.31;5014835;28;19924;-66
2022/03/06 06:00:23;;;;;;;;;;;;;;;5.04;68.47;100603.63;5015544;28;20047;-66
2022/03/06 06:03:06;;;;;;;;;;;;;;;5.02;67.48;100598.41;5015243;28;20324;-65
2022/03/06 06:05:51;;;;;;;;;;;;;;;5.03;68.23;100610.44;5015328;28;19944;-66
2022/03/06 06:08:35;;;;;;;;;;;;;;;5.03;68.57;100617.28;5014405;28;19927;-65
2022/03/06 06:11:19;;;;;;;;;;;;;;;5.02;67.98;100618.97;5015112;28;20288;-65
2022/03/06 06:14:04;;;;;;;;;;;;;;;5.01;68.05;100617.19;5014319;28;20292;-65
2022/03/06 06:16:48;;;;;;;;;;;;;;;5.01;67.49;100624.91;5013874;28;19924;-66
2022/03/06 06:19:35;;;;;;;;;;;;;;;4.99;67.65;100621.38;5015340;28;19944;-66
2022/03/06 06:22:19;;;;;;;;;;;;;;;4.99;68.16;100616.25;5015031;28;19978;-65
2022/03/06 06:25:03;;;;;;;;;;;;;;;4.99;68.18;100628.22;5015297;28;19970;-65
2022/03/06 06:27:47;;;;;;;;;;;;;;;4.98;67.92;100634.16;5014554;28;19985;-65
2022/03/06 06:30:31;;;;;;;;;;;;;;;4.97;68.19;100633.28;5013885;28;20434;-66
2022/03/06 06:33:15;;;;;;;;;;;;;;;4.97;68.37;100638.44;5014396;28;20488;-66
2022/03/06 06:35:59;;;;;;;;;;;;;;;4.97;68.47;100646.13;5014694;28;20008;-66
2022/03/06 06:38:43;;;;;;;;;;;;;;;4.96;68.24;100640.91;5014158;28;19955;-66
2022/03/06 06:41:27;;;;;;;;;;;;;;;4.95;68.07;100645.19;5014934;28;19990;-66
2022/03/06 06:44:11;;;;;;;;;;;;;;;4.95;68.22;100647.75;5013898;28;19925;-65
2022/03/06 06:46:55;;;;;;;;;;;;;;;4.95;68.51;100665.72;5014046;28;20324;-65
2022/03/06 06:49:39;;;;;;;;;;;;;;;4.92;68.11;100660.44;5013996;28;20008;-65
2022/03/06 06:52:23;;;;;;;;;;;;;;;4.93;67.78;100661.31;5013954;28;19924;-66
2022/03/06 06:55:07;;;;;;;;;;;;;;;4.91;67.83;100662.91;5013444;28;19925;-65
2022/03/06 06:57:51;;;;;;;;;;;;;;;4.90;68.24;100664.63;5013886;28;19925;-65
2022/03/06 07:00:36;;;;;;;;;;;;;;;4.88;68.12;100664.56;5014185;28;20383;-66
2022/03/06 07:03:19;;;;;;;;;;;;;;;4.86;68.43;100675.53;5014418;28;19936;-65
2022/03/06 07:06:03;;;;;;;;;;;;;;;4.81;67.88;100689.84;5013406;28;19924;-65
2022/03/06 07:08:47;;;;;;;;;;;;;;;4.75;68.17;100692.97;5014189;28;19984;-65
2022/03/06 07:11:31;;;;;;;;;;;;;;;4.72;67.85;100687.72;5012909;28;19924;-66
2022/03/06 07:14:15;;;;;;;;;;;;;;;4.71;67.95;100698.78;5013183;28;19963;-66
2022/03/06 07:16:59;;;;;;;;;;;;;;;4.69;67.79;100691.00;5013244;28;20324;-65
2022/03/06 07:19:44;;;;;;;;;;;;;;;4.69;67.66;100702.97;5014373;28;19963;-65
2022/03/06 07:22:28;;;;;;;;;;;;;;;4.68;68.19;100712.34;5013078;28;20027;-66
2022/03/06 07:25:12;;;;;;;;;;;;;;;4.68;67.68;100716.59;5013201;28;19948;-65
2022/03/06 07:27:56;;;;;;;;;;;;;;;4.67;67.46;100714.84;5014321;28;20419;-65
2022/03/06 07:30:40;;;;;;;;;;;;;;;4.66;67.40;100723.34;5014310;28;20395;-65
2022/03/06 07:33:24;;;;;;;;;;;;;;;4.66;67.42;100723.34;5014061;28;20388;-66
2022/03/06 07:36:07;;;;;;;;;;;;;;;4.68;67.98;100727.75;5013058;28;19932;-65
2022/03/06 07:38:53;;;;;;;;;;;;;;;4.69;67.95;100726.94;5014099;28;20314;-66
2022/03/06 07:41:36;;;;;;;;;;;;;;;4.72;67.90;100736.50;5013877;28;19924;-66
2022/03/06 07:44:20;;;;;;;;;;;;;;;4.73;68.14;100733.13;5013699;28;19948;-66
2022/03/06 07:47:04;;;;;;;;;;;;;;;4.75;67.46;100738.34;5013026;28;20020;-65
2022/03/06 07:49:48;;;;;;;;;;;;;;;4.77;68.23;100739.31;5013817;28;19925;-65
2022/03/06 07:52:32;;;;;;;;;;;;;;;4.76;68.64;100740.97;5013443;28;19971;-65
2022/03/06 07:55:16;;;;;;;;;;;;;;;4.73;67.89;100744.28;5013578;28;19928;-66
2022/03/06 07:58:00;;;;;;;;;;;;;;;4.73;68.46;100741.72;5012780;28;20416;-65
2022/03/06 08:00:44;;;;;;;;;;;;;;;4.75;68.09;100746.03;5013586;28;19924;-66
2022/03/06 08:03:29;;;;;;;;;;;;;;;4.73;68.46;100754.56;5013540;28;19925;-66
2022/03/06 08:06:13;;;;;;;;;;;;;;;4.73;67.88;100746.84;5013526;28;19924;-66
2022/03/06 08:08:57;;;;;;;;;;;;;;;4.73;68.00;100741.72;5012961;28;19948;-65
2022/03/06 08:11:40;;;;;;;;;;;;;;;4.72;68.08;100749.34;5012758;28;19925;-66
2022/03/06 08:14:24;;;;;;;;;;;;;;;4.73;68.31;100756.25;5013244;28;19944;-66
2022/03/06 08:17:08;;;;;;;;;;;;;;;4.72;68.10;100755.34;5017150;28;19924;-65
2022/03/06 08:19:55;;;;;;;;;;;;;;;4.71;68.18;100760.41;5017468;28;20435;-65
2022/03/06 08:22:39;;;;;;;;;;;;;;;4.70;68.33;100756.94;5017197;28;20005;-65
2022/03/06 08:25:23;;;;;;;;;;;;;;;4.73;67.90;100756.25;5016868;28;20485;-65
2022/03/06 08:28:07;;;;;;;;;;;;;;;4.71;68.03;100765.56;5015968;28;19924;-65
2022/03/06 08:30:51;;;;;;;;;;;;;;;4.71;67.92;100769.00;5015834;28;19975;-66
2022/03/06 08:33:35;;;;;;;;;;;;;;;4.70;68.04;100779.19;5016854;28;20379;-65
2022/03/06 08:36:31;;;;;;;;;;;;;;;4.70;67.87;100776.63;5016258;28;19924;-65
2022/03/06 08:39:15;;;;;;;;;;;;;;;4.70;68.18;100769.78;5015622;28;19971;-65
2022/03/06 08:41:59;;;;;;;;;;;;;;;4.70;68.17;100774.06;5016634;28;20399;-65
2022/03/06 08:44:43;;;;;;;;;;;;;;;4.71;67.89;100770.69;5016428;28;20447;-66
2022/03/06 08:47:28;;;;;;;;;;;;;;;4.71;67.91;100769.00;5016424;28;19924;-65
2022/03/06 08:50:12;;;;;;;;;;;;;;;4.72;68.28;100775.03;5016281;28;19923;-66
2022/03/06 08:52:55;;;;;;;;;;;;;;;4.73;67.80;100767.38;5016040;28;19927;-65
2022/03/06 08:55:39;;;;;;;;;;;;;;;4.73;68.54;100771.66;5016334;28;19968;-65
2022/03/06 08:58:23;;;;;;;;;;;;;;;4.75;68.37;100777.72;5016817;28;20380;-64
2022/03/06 09:01:07;;;;;;;;;;;;;;;4.75;68.32;100770.03;5016472;28;20289;-64
2022/03/06 09:03:51;;;;;;;;;;;;;;;4.75;68.38;100777.72;5015818;28;20323;-65
2022/03/06 09:06:35;;;;;;;;;;;;;;;4.77;67.96;100770.13;5016450;28;19924;-65
2022/03/06 09:09:19;;;;;;;;;;;;;;;4.76;68.30;100776.94;5016464;28;20284;-65
2022/03/06 09:12:03;;;;;;;;;;;;;;;4.75;67.91;100779.44;5015642;28;19967;-65
2022/03/06 09:14:46;;;;;;;;;;;;;;;4.76;68.07;100779.50;5016678;28;19924;-65
2022/03/06 09:17:30;;;;;;;;;;;;;;;4.81;67.93;100784.88;5015976;28;20328;-65
2022/03/06 09:20:14;;;;;;;;;;;;;;;4.81;68.48;100783.19;5016169;28;19924;-64
2022/03/06 09:22:58;;;;;;;;;;;;;;;4.85;68.05;100781.66;5016241;28;19924;-65
2022/03/06 09:25:42;;;;;;;;;;;;;;;4.84;68.21;100785.94;5014884;28;19924;-65
2022/03/06 09:28:26;;;;;;;;;;;;;;;4.85;68.29;100785.13;5015295;28;19971;-64
2022/03/06 09:31:10;;;;;;;;;;;;;;;4.86;67.77;100786.88;5015547;28;19925;-65
2022/03/06 09:33:54;;;;;;;;;;;;;;;4.88;68.27;100786.94;5015151;28;20273;-64
2022/03/06 09:36:38;;;;;;;;;;;;;;;4.89;68.46;100788.72;5015667;28;19967;-64
2022/03/06 09:39:22;;;;;;;;;;;;;;;4.89;68.82;100788.72;5015191;28;20340;-64
2022/03/06 09:42:06;;;;;;;;;;;;;;;4.91;68.53;100792.25;5015709;28;20008;-65
2022/03/06 09:44:50;;;;;;;;;;;;;;;4.93;68.16;100790.66;5015367;28;19925;-65
2022/03/06 09:47:34;;;;;;;;;;;;;;;4.95;67.80;100793.28;5015414;28;19924;-64
2022/03/06 09:50:19;;;;;;;;;;;;;;;4.95;68.33;100791.63;5015448;28;19925;-64
2022/03/06 09:53:03;;;;;;;;;;;;;;;4.96;68.89;100795.94;5014913;28;19972;-64
2022/03/06 09:55:48;;;;;;;;;;;;;;;4.97;68.29;100795.16;5013940;28;20340;-64
2022/03/06 09:58:32;;;;;;;;;;;;;;;4.98;68.30;100794.31;5015340;28;19928;-65
2022/03/06 10:01:16;;;;;;;;;;;;;;;4.99;68.48;100787.50;5014992;28;19929;-66
2022/03/06 10:04:19;;;;;;;;;;;;;;;5.01;68.11;100791.03;5014173;28;20403;-64
2022/03/06 10:07:13;;;;;;;;;;;;;;;4.99;68.07;100796.06;5014986;28;19924;-64
2022/03/06 10:09:58;;;;;;;;;;;;;;;5.01;68.45;100791.03;5014255;28;19979;-65
2022/03/06 10:12:43;;;;;;;;;;;;;;;5.01;68.53;100785.91;5014273;28;19999;-65
2022/03/06 10:15:27;;;;;;;;;;;;;;;5.02;68.44;100792.81;5014577;28;20304;-65
2022/03/06 10:18:11;;;;;;;;;;;;;;;5.03;68.51;100784.28;5014360;28;20296;-65
2022/03/06 10:21:00;;;;;;;;;;;;;;;5.04;67.87;100788.63;5014647;28;19925;-64
2022/03/06 10:23:45;;;;;;;;;;;;;;;5.06;68.30;100786.13;5015218;28;19923;-65
2022/03/06 10:26:30;;;;;;;;;;;;;;;5.06;68.44;100786.13;5014161;28;19924;-65
2022/03/06 10:29:14;;;;;;;;;;;;;;;5.05;68.31;100792.06;5014329;28;19929;-65
2022/03/06 10:31:59;;;;;;;;;;;;;;;5.07;68.29;100793.91;5013851;28;19971;-65
2022/03/06 10:34:43;;;;;;;;;;;;;;;5.07;68.50;100786.19;5013926;28;19923;-65
2022/03/06 10:37:30;;;;;;;;;;;;;;;5.08;68.01;100790.53;5014259;28;19947;-65
2022/03/06 10:40:14;;;;;;;;;;;;;;;5.09;68.65;100794.84;5014903;28;20273;-65
2022/03/06 10:42:58;;;;;;;;;;;;;;;5.09;68.34;100791.41;5014086;28;19924;-64
2022/03/06 10:45:42;;;;;;;;;;;;;;;5.09;68.28;100789.72;5014483;28;19924;-65
2022/03/06 10:48:26;;;;;;;;;;;;;;;5.11;68.38;100789.81;5014461;28;19976;-65
2022/03/06 10:51:11;;;;;;;;;;;;;;;5.11;68.25;100790.69;5014398;28;20005;-64
2022/03/06 10:53:57;;;;;;;;;;;;;;;5.12;68.63;100796.72;5014245;28;19967;-64
2022/03/06 10:56:47;;;;;;;;;;;;;;;5.12;67.94;100792.44;5013840;28;19923;-65
2022/03/06 10:59:32;;;;;;;;;;;;;;;5.12;68.26;100795.03;5013236;28;20000;-65
2022/03/06 11:02:16;;;;;;;;;;;;;;;5.13;68.36;100794.22;5013184;28;19928;-65
2022/03/06 11:05:02;;;;;;;;;;;;;;;5.13;68.19;100794.22;5014170;28;19925;-65
2022/03/06 11:07:45;;;;;;;;;;;;;;;5.13;68.09;100791.66;5013145;28;20162;-65
2022/03/06 11:10:29;;;;;;;;;;;;;;;5.13;68.48;100789.06;5014105;28;19964;-65
2022/03/06 11:13:14;;;;;;;;;;;;;;;5.14;68.07;100779.66;5014036;28;19924;-65
2022/03/06 11:15:58;;;;;;;;;;;;;;;5.14;67.95;100779.66;5012952;28;19924;-65
2022/03/06 11:18:43;;;;;;;;;;;;;;;5.14;68.50;100785.69;5014140;28;19940;-65
2022/03/06 11:21:28;;;;;;;;;;;;;;;5.15;68.36;100781.44;5014109;28;19968;-64
2022/03/06 11:24:28;;;;;;;;;;;;;;;5.14;68.43;100782.22;5013463;28;19968;-65
2022/03/06 11:27:25;;;;;;;;;;;;;;;5.15;68.06;100777.19;5013065;28;20328;-65
2022/03/06 11:30:18;;;;;;;;;;;;;;;5.14;68.05;100779.66;5013076;28;19967;-65
2022/03/06 11:33:05;;;;;;;;;;;;;;;5.14;67.58;100767.72;5013056;28;19946;-64
2022/03/06 11:35:50;;;;;;;;;;;;;;;5.15;68.19;100769.47;5013649;28;19944;-64
2022/03/06 11:38:38;;;;;;;;;;;;;;;5.13;67.15;100767.66;5014290;28;19971;-64
2022/03/06 11:41:26;;;;;;;;;;;;;;;5.14;67.96;100774.53;5013999;28;19924;-65
2022/03/06 11:44:39;;;;;;;;;;;;;;;5.14;67.96;100764.25;5013459;28;19924;-65
2022/03/06 11:47:35;;;;;;;;;;;;;;;5.14;68.12;100753.97;5010004;28;19924;-65
2022/03/06 11:50:22;;;;;;;;;;;;;;;5.14;67.37;100754.88;5015567;28;19964;-65
2022/03/06 11:53:19;;;;;;;;;;;;;;;5.14;68.02;100765.16;5017202;28;19971;-64
2022/03/06 11:56:23;;;;;;;;;;;;;;;5.13;68.19;100759.94;5016553;28;19972;-65
2022/03/06 11:59:10;;;;;;;;;;;;;;;5.12;67.45;100753.03;5016490;28;19927;-64
2022/03/06 12:01:55;;;;;;;;;;;;;;;5.12;68.24;100750.47;5017048;28;19971;-65
2022/03/06 12:04:43;;;;;;;;;;;;;;;5.12;67.26;100751.34;5016484;28;19924;-65
2022/03/06 12:07:27;;;;;;;;;;;;;;;5.12;67.46;100740.19;5016583;28;19924;-65
2022/03/06 12:10:13;;;;;;;;;;;;;;;5.11;67.87;100741.84;5017232;28;19924;-66
2022/03/06 12:12:57;;;;;;;;;;;;;;;5.12;67.74;100746.19;5016142;28;19971;-65
2022/03/06 12:15:42;;;;;;;;;;;;;;;5.11;67.36;100738.44;5016580;28;19940;-65
2022/03/06 12:18:26;;;;;;;;;;;;;;;5.12;67.31;100743.63;5017106;28;19924;-65
2022/03/06 12:21:19;;;;;;;;;;;;;;;5.13;67.22;100742.81;5017060;28;19924;-65
2022/03/06 12:24:10;;;;;;;;;;;;;;;5.12;67.07;100742.75;5016649;28;19924;-64
2022/03/06 12:26:54;;;;;;;;;;;;;;;5.13;67.59;100741.97;5016555;28;19975;-65
2022/03/06 12:29:47;;;;;;;;;;;;;;;5.12;67.15;100746.19;5016988;28;19988;-65
2022/03/06 12:32:38;;;;;;;;;;;;;;;5.11;67.73;100741.84;5016862;28;20009;-64
2022/03/06 12:35:22;;;;;;;;;;;;;;;5.11;67.57;100739.28;5016874;28;20320;-65
2022/03/06 12:38:06;;;;;;;;;;;;;;;5.12;67.48;100738.47;5016278;28;19927;-65
2022/03/06 12:40:50;;;;;;;;;;;;;;;5.11;67.54;100738.44;5017169;28;19967;-65
2022/03/06 12:43:37;;;;;;;;;;;;;;;5.11;67.99;100731.56;5015915;28;20284;-65
2022/03/06 12:46:21;;;;;;;;;;;;;;;5.13;67.48;100732.53;5015985;28;19924;-66
2022/03/06 12:49:05;;;;;;;;;;;;;;;5.11;67.67;100730.72;5016721;28;19924;-65
2022/03/06 12:51:50;;;;;;;;;;;;;;;5.10;67.10;100727.25;5016062;28;19925;-64
2022/03/06 12:54:36;;;;;;;;;;;;;;;5.10;67.40;100722.09;5015621;28;20407;-65
2022/03/06 12:57:21;;;;;;;;;;;;;;;5.10;67.43;100724.69;5016168;28;19940;-65
2022/03/06 13:00:09;;;;;;;;;;;;;;;5.10;67.51;100714.41;5015584;28;20281;-65
2022/03/06 13:02:55;;;;;;;;;;;;;;;5.10;67.86;100713.53;5015059;28;20344;-65
2022/03/06 13:05:38;;;;;;;;;;;;;;;5.09;67.74;100710.06;5016705;28;20435;-65
2022/03/06 13:08:38;;;;;;;;;;;;;;;5.11;67.10;100715.28;5016464;28;19964;-65
2022/03/06 13:11:21;;;;;;;;;;;;;;;5.11;67.29;100717.88;5015481;28;20384;-65
2022/03/06 13:14:07;;;;;;;;;;;;;;;5.11;67.27;100705.88;5016256;28;19997;-64
2022/03/06 13:16:53;;;;;;;;;;;;;;;5.11;67.31;100713.59;5015161;28;20010;-65
2022/03/06 13:19:41;;;;;;;;;;;;;;;5.09;67.22;100717.78;5015983;28;20399;-66
2022/03/06 13:22:26;;;;;;;;;;;;;;;5.10;67.26;100714.41;5015112;28;20027;-65
2022/03/06 13:25:10;;;;;;;;;;;;;;;5.09;67.24;100707.50;5015995;28;19971;-65
2022/03/06 13:27:54;;;;;;;;;;;;;;;5.11;67.35;100713.59;5015732;28;19983;-65
2022/03/06 13:30:38;;;;;;;;;;;;;;;5.11;66.76;100710.16;5016227;28;19924;-65
2022/03/06 13:33:22;;;;;;;;;;;;;;;5.09;66.68;100709.19;5014898;28;19993;-65
2022/03/06 13:36:15;;;;;;;;;;;;;;;5.11;66.88;100705.88;5016065;28;19929;-65
2022/03/06 13:39:04;;;;;;;;;;;;;;;5.14;67.56;100700.91;5015519;28;20002;-65
2022/03/06 13:41:51;;;;;;;;;;;;;;;5.13;66.81;100701.72;5014611;28;19925;-65
2022/03/06 13:44:35;;;;;;;;;;;;;;;5.12;66.74;100707.66;5015216;28;19924;-65
2022/03/06 13:47:19;;;;;;;;;;;;;;;5.13;66.79;100703.41;5015084;28;20327;-65
2022/03/06 13:50:03;;;;;;;;;;;;;;;5.13;67.42;100704.28;5014643;28;20363;-65
2022/03/06 13:52:47;;;;;;;;;;;;;;;5.12;67.18;100707.66;5015450;28;19928;-66
2022/03/06 13:55:32;;;;;;;;;;;;;;;5.12;66.73;100704.22;5014787;28;19971;-65
2022/03/06 13:58:16;;;;;;;;;;;;;;;5.10;66.84;100709.25;5015727;28;19996;-66
2022/03/06 14:01:00;;;;;;;;;;;;;;;5.10;67.20;100698.13;5013884;28;20340;-65
2022/03/06 14:03:46;;;;;;;;;;;;;;;5.09;67.19;100702.34;5014666;28;19924;-65
2022/03/06 14:06:38;;;;;;;;;;;;;;;5.11;66.84;100700.75;5014297;28;19940;-65
2022/03/06 14:09:26;;;;;;;;;;;;;;;5.10;66.49;100706.69;5013994;28;19963;-65
2022/03/06 14:12:15;;;;;;;;;;;;;;;5.09;66.83;100709.19;5014396;28;20320;-65
2022/03/06 14:14:58;;;;;;;;;;;;;;;5.08;66.35;100710.88;5013926;28;20387;-65
2022/03/06 14:17:51;;;;;;;;;;;;;;;5.08;66.47;100708.28;5013860;28;19924;-66
2022/03/06 14:20:44;;;;;;;;;;;;;;;5.08;66.53;100716.00;5014492;28;19925;-65